Time;durP1;ratioP1;P1;durP2;ratioP2;P2;SDS_P1;SDS_P2;PMS_P1;PMS_P2;Temp;Humidity;BMP_temperature;BMP_pressure;BME280_temperature;BME280_humidity;BME280_pressure;Samples;Min_cycle;Max_cycle;Signal;HPM_P1;HPM_P2
2022/11/04 00:01:21;;;;;;;2.23;1.80;;;12.40;99.90;;;;;;5027369;28;20441;-83
2022/11/04 00:03:48;;;;;;;2.47;1.50;;;12.40;99.90;;;;;;5029756;28;20442;-83
2022/11/04 00:06:16;;;;;;;2.70;1.80;;;12.30;99.90;;;;;;5044038;28;20506;-83
2022/11/04 00:08:43;;;;;;;2.40;1.60;;;12.30;99.90;;;;;;5037874;28;20894;-83
2022/11/04 00:13:54;;;;;;;2.30;1.73;;;12.30;99.90;;;;;;5023970;28;20496;-84
2022/11/04 00:19:06;;;;;;;2.70;2.30;;;12.40;99.90;;;;;;5038480;28;20536;-83
2022/11/04 00:30:00;;;;;;;2.40;1.63;;;12.40;99.90;;;;;;5038669;28;20571;-83
2022/11/04 00:35:13;;;;;;;2.30;1.80;;;12.40;99.90;;;;;;5036592;28;20446;-83
2022/11/04 00:37:43;;;;;;;3.37;2.00;;;12.40;99.90;;;;;;5045813;28;20484;-82
2022/11/04 00:40:14;;;;;;;2.40;1.77;;;12.30;99.90;;;;;;5046438;28;20464;-83
2022/11/04 00:42:44;;;;;;;2.10;1.70;;;12.30;99.90;;;;;;5029736;28;20469;-83
2022/11/04 00:45:11;;;;;;;3.30;2.10;;;12.40;99.90;;;;;;5028633;28;20442;-83
2022/11/04 00:47:38;;;;;;;2.40;2.10;;;12.40;99.90;;;;;;5030491;28;20449;-83
2022/11/04 00:50:06;;;;;;;3.03;2.43;;;12.40;99.90;;;;;;5029420;28;20505;-83
2022/11/04 00:52:33;;;;;;;2.80;2.17;;;12.40;99.90;;;;;;5028168;28;20452;-82
2022/11/04 00:55:01;;;;;;;2.23;1.83;;;12.40;99.90;;;;;;5024530;28;20553;-83
2022/11/04 00:57:28;;;;;;;2.37;1.67;;;12.40;99.90;;;;;;5029290;28;20528;-83
2022/11/04 00:59:55;;;;;;;2.57;1.77;;;12.40;99.90;;;;;;5032816;28;20915;-83
2022/11/04 01:02:22;;;;;;;2.10;1.50;;;12.40;99.90;;;;;;5049746;28;20431;-82
2022/11/04 01:04:48;;;;;;;2.17;1.70;;;12.30;99.90;;;;;;5053784;28;20476;-83
2022/11/04 01:07:15;;;;;;;1.93;1.30;;;12.30;99.90;;;;;;5052615;28;20509;-83
2022/11/04 01:09:42;;;;;;;3.73;1.60;;;12.30;99.90;;;;;;5033582;28;20484;-83
2022/11/04 01:12:10;;;;;;;1.40;1.00;;;12.20;99.90;;;;;;5034836;28;20969;-83
2022/11/04 01:14:37;;;;;;;1.63;1.13;;;12.30;99.90;;;;;;5057864;28;20489;-83
2022/11/04 01:17:04;;;;;;;2.17;1.20;;;12.30;99.90;;;;;;5045146;28;20507;-83
2022/11/04 01:19:31;;;;;;;1.80;1.13;;;12.30;99.90;;;;;;5032679;28;20472;-83
2022/11/04 01:21:57;;;;;;;1.63;1.20;;;12.30;99.90;;;;;;5034576;28;20444;-82
2022/11/04 01:24:24;;;;;;;2.60;1.40;;;12.30;99.90;;;;;;5034790;28;20969;-83
2022/11/04 01:26:51;;;;;;;1.37;0.90;;;12.30;99.90;;;;;;5029490;28;20439;-83
2022/11/04 01:29:19;;;;;;;2.50;1.10;;;12.40;99.90;;;;;;5041850;28;20478;-83
2022/11/04 01:31:46;;;;;;;2.23;1.23;;;12.40;99.90;;;;;;5047618;28;20493;-83
2022/11/04 01:34:13;;;;;;;1.57;1.10;;;12.40;99.90;;;;;;5025645;28;20948;-82
2022/11/04 01:36:39;;;;;;;1.43;1.13;;;12.40;99.90;;;;;;5035016;28;20442;-82
2022/11/04 01:39:06;;;;;;;2.20;1.17;;;12.30;99.90;;;;;;5030343;28;20973;-83
2022/11/04 01:41:34;;;;;;;2.67;1.20;;;12.30;99.90;;;;;;5033042;28;20446;-83
2022/11/04 01:44:03;;;;;;;1.67;1.20;;;12.30;99.90;;;;;;5031697;28;20439;-83
2022/11/04 01:46:38;;;;;;;1.70;1.30;;;12.20;99.90;;;;;;5024567;28;20451;-83
2022/11/04 01:49:18;;;;;;;2.03;1.23;;;12.20;99.90;;;;;;5030108;28;20462;-83
2022/11/04 01:51:48;;;;;;;1.70;1.10;;;12.20;99.90;;;;;;5034517;28;20533;-83
2022/11/04 01:54:15;;;;;;;3.37;1.43;;;12.20;99.90;;;;;;5031464;28;20446;-83
2022/11/04 01:56:43;;;;;;;1.73;1.30;;;12.20;99.90;;;;;;5039420;28;20525;-84
2022/11/04 01:59:15;;;;;;;2.10;1.60;;;12.10;99.90;;;;;;5047333;28;20480;-82
2022/11/04 02:01:44;;;;;;;2.60;1.63;;;12.10;99.90;;;;;;5043393;28;20444;-83
2022/11/04 02:04:28;;;;;;;1.90;1.30;;;12.10;99.90;;;;;;5033053;28;20446;-82
2022/11/04 02:06:57;;;;;;;1.70;1.10;;;12.10;99.90;;;;;;5029101;28;21241;-83
2022/11/04 02:09:26;;;;;;;1.50;1.10;;;12.00;99.90;;;;;;5059746;28;20496;-82
2022/11/04 02:14:38;;;;;;;1.67;1.33;;;12.00;99.90;;;;;;5037404;28;20533;-82
2022/11/04 02:17:16;;;;;;;1.73;1.00;;;12.00;99.90;;;;;;5031238;28;20434;-83
2022/11/04 02:20:01;;;;;;;1.73;1.20;;;12.00;99.90;;;;;;5043804;28;20457;-82
2022/11/04 02:23:08;;;;;;;2.33;1.10;;;12.00;99.90;;;;;;5026085;28;20634;-83
2022/11/04 02:26:10;;;;;;;1.90;1.47;;;12.00;99.90;;;;;;5018503;28;20459;-82
2022/11/04 02:29:02;;;;;;;1.43;0.80;;;11.90;99.90;;;;;;5039352;28;20438;-82
2022/11/04 02:31:35;;;;;;;1.60;1.20;;;11.90;99.90;;;;;;5046626;28;20483;-82
2022/11/04 02:34:10;;;;;;;1.53;0.87;;;11.80;99.90;;;;;;5033108;28;20443;-83
2022/11/04 02:36:46;;;;;;;2.53;1.10;;;11.80;99.90;;;;;;5040228;28;20445;-82
2022/11/04 02:39:22;;;;;;;1.27;0.80;;;11.90;99.90;;;;;;5040971;28;20536;-82
2022/11/04 02:41:56;;;;;;;1.30;0.80;;;11.90;99.90;;;;;;5049848;28;20501;-83
2022/11/04 02:44:32;;;;;;;1.40;1.23;;;11.90;99.90;;;;;;5039743;28;20434;-83
2022/11/04 02:47:02;;;;;;;1.60;0.87;;;11.90;99.90;;;;;;5043704;28;20443;-82
2022/11/04 02:49:35;;;;;;;1.20;0.87;;;11.80;99.90;;;;;;5059460;28;20465;-82
2022/11/04 02:52:06;;;;;;;2.43;1.30;;;11.80;99.90;;;;;;5057143;28;20428;-82
2022/11/04 02:54:40;;;;;;;4.87;0.80;;;11.70;99.90;;;;;;5052822;28;20438;-83
2022/11/04 02:57:11;;;;;;;2.27;1.37;;;11.70;99.90;;;;;;5032801;28;20446;-83
2022/11/04 02:59:44;;;;;;;1.40;1.13;;;11.70;99.90;;;;;;5026441;28;20511;-83
2022/11/04 03:02:15;;;;;;;2.00;1.23;;;11.70;99.90;;;;;;5035489;28;20429;-83
2022/11/04 03:04:45;;;;;;;1.57;1.30;;;11.60;99.90;;;;;;5026692;28;20438;-83
2022/11/04 03:07:14;;;;;;;2.27;1.20;;;11.60;99.90;;;;;;5035609;28;20436;-83
2022/11/04 03:09:46;;;;;;;4.20;1.00;;;11.50;99.90;;;;;;5031738;28;20486;-83
2022/11/04 03:12:16;;;;;;;2.27;1.10;;;11.50;99.90;;;;;;5031367;28;20417;-83
2022/11/04 03:14:48;;;;;;;1.80;1.00;;;11.50;99.90;;;;;;5028143;28;20495;-82
2022/11/04 03:17:20;;;;;;;1.90;0.97;;;11.50;99.90;;;;;;5040910;28;20469;-83
2022/11/04 03:19:53;;;;;;;1.53;0.80;;;11.50;99.90;;;;;;5031474;28;20462;-83
2022/11/04 03:22:23;;;;;;;1.77;0.63;;;11.50;99.90;;;;;;5031059;28;20446;-83
2022/11/04 03:24:50;;;;;;;2.87;1.37;;;11.50;99.90;;;;;;5028211;28;20439;-84
2022/11/04 03:27:25;;;;;;;1.77;1.00;;;11.50;99.90;;;;;;5031205;28;20434;-83
2022/11/04 03:29:59;;;;;;;2.03;1.03;;;11.50;99.90;;;;;;5037832;28;20481;-82
2022/11/04 03:32:35;;;;;;;2.90;1.10;;;11.40;99.90;;;;;;5046847;28;20532;-82
2022/11/04 03:35:02;;;;;;;1.60;1.00;;;11.40;99.90;;;;;;5029627;28;20448;-82
2022/11/04 03:37:28;;;;;;;5.03;1.33;;;11.40;99.90;;;;;;5030977;28;20450;-83
2022/11/04 03:39:56;;;;;;;2.00;0.97;;;11.50;99.90;;;;;;5028121;28;20470;-83
2022/11/04 03:42:24;;;;;;;1.40;1.00;;;11.40;99.90;;;;;;5030198;28;20442;-84
2022/11/04 03:44:54;;;;;;;2.93;1.20;;;11.40;99.90;;;;;;5029422;28;20442;-84
2022/11/04 03:47:23;;;;;;;4.07;1.20;;;11.40;99.90;;;;;;5046271;28;20450;-85
2022/11/04 03:49:52;;;;;;;2.40;1.07;;;11.40;99.90;;;;;;5058408;28;20465;-85
2022/11/04 03:52:19;;;;;;;2.17;0.87;;;11.30;99.90;;;;;;5055999;28;20457;-85
2022/11/04 03:54:47;;;;;;;2.80;0.97;;;11.30;99.90;;;;;;5034018;28;20938;-84
2022/11/04 03:57:33;;;;;;;2.80;1.13;;;11.30;99.90;;;;;;5028897;28;20442;-84
2022/11/04 04:00:08;;;;;;;2.17;1.30;;;11.30;99.90;;;;;;5030443;28;20481;-85
2022/11/04 04:02:42;;;;;;;4.07;1.27;;;11.30;99.90;;;;;;5046182;28;20528;-84
2022/11/04 04:05:15;;;;;;;2.17;1.10;;;11.20;99.90;;;;;;5042971;28;20445;-86
2022/11/04 04:07:48;;;;;;;2.33;1.20;;;11.20;99.90;;;;;;5038372;28;20442;-86
2022/11/04 04:13:09;;;;;;;1.40;1.10;;;11.20;99.90;;;;;;5028860;28;20977;-86
2022/11/04 04:15:44;;;;;;;1.90;1.03;;;11.20;99.90;;;;;;5019481;28;20438;-84
2022/11/04 04:18:15;;;;;;;2.90;1.27;;;11.10;99.90;;;;;;5023424;28;20451;-85
2022/11/04 04:20:46;;;;;;;1.77;1.27;;;11.00;99.90;;;;;;5048755;28;20472;-84
2022/11/04 04:28:50;;;;;;;3.57;1.20;;;11.00;99.90;;;;;;5024749;28;20449;-84
2022/11/04 04:34:00;;;;;;;2.27;1.20;;;11.00;99.90;;;;;;5058317;28;20425;-84
2022/11/04 04:36:29;;;;;;;3.53;2.10;;;10.90;99.90;;;;;;5038947;28;20430;-84
2022/11/04 04:47:22;;;;;;;3.70;2.50;;;10.80;99.90;;;;;;5031057;28;20453;-85
2022/11/04 04:49:52;;;;;;;3.07;2.70;;;10.90;99.90;;;;;;5023016;28;20484;-85
2022/11/04 04:52:20;;;;;;;4.93;4.00;;;10.80;99.90;;;;;;5026284;28;20860;-85
2022/11/04 04:54:47;;;;;;;4.77;2.00;;;10.80;99.90;;;;;;5032700;28;20446;-86
2022/11/04 04:57:14;;;;;;;3.63;1.90;;;10.70;99.90;;;;;;5028162;28;20444;-85
2022/11/04 04:59:40;;;;;;;2.77;1.57;;;10.70;99.90;;;;;;5027482;28;20996;-85
2022/11/04 05:02:07;;;;;;;3.90;2.40;;;10.70;99.90;;;;;;5023215;28;20441;-85
2022/11/04 05:04:35;;;;;;;3.23;2.53;;;10.60;99.90;;;;;;5022685;28;20453;-86
2022/11/04 05:07:02;;;;;;;4.87;3.23;;;10.60;99.90;;;;;;5024354;28;20438;-85
2022/11/04 05:09:29;;;;;;;4.47;2.40;;;10.60;99.90;;;;;;5027607;28;20480;-85
2022/11/04 05:11:55;;;;;;;5.30;3.03;;;10.60;99.90;;;;;;5034374;28;20474;-85
2022/11/04 05:14:22;;;;;;;3.60;2.80;;;10.60;99.90;;;;;;5029300;28;20837;-85
2022/11/04 05:16:49;;;;;;;8.67;3.07;;;10.60;99.90;;;;;;5040091;28;20441;-85
2022/11/04 05:19:15;;;;;;;4.63;2.57;;;10.50;99.90;;;;;;5037741;28;20446;-85
2022/11/04 05:21:43;;;;;;;4.10;2.30;;;10.60;99.90;;;;;;5041565;28;20430;-84
2022/11/04 05:24:10;;;;;;;4.43;2.60;;;10.50;99.90;;;;;;5056903;28;20460;-86
2022/11/04 05:26:37;;;;;;;4.97;2.77;;;10.50;99.90;;;;;;5031426;28;20927;-85
2022/11/04 05:29:04;;;;;;;5.20;2.93;;;10.50;99.90;;;;;;5025774;28;20469;-86
2022/11/04 05:31:31;;;;;;;5.30;2.13;;;10.50;99.90;;;;;;5027632;28;20477;-86
2022/11/04 05:33:58;;;;;;;6.50;2.70;;;10.50;99.90;;;;;;5039417;28;20449;-85
2022/11/04 05:36:25;;;;;;;3.90;2.33;;;10.50;99.90;;;;;;5030282;28;20461;-84
2022/11/04 05:38:55;;;;;;;3.10;2.10;;;10.40;99.90;;;;;;5032914;28;20462;-85
2022/11/04 05:41:25;;;;;;;4.80;2.83;;;10.40;99.90;;;;;;5035448;28;20442;-85
2022/11/04 05:43:52;;;;;;;3.57;2.47;;;10.40;99.90;;;;;;5033875;28;20439;-86
2022/11/04 05:46:19;;;;;;;10.20;2.87;;;10.50;99.90;;;;;;5033421;28;20446;-86
2022/11/04 05:48:45;;;;;;;5.30;2.33;;;10.40;99.90;;;;;;5025573;28;20468;-85
2022/11/04 05:51:13;;;;;;;4.27;3.03;;;10.30;99.90;;;;;;5029284;28;20486;-86
2022/11/04 05:53:40;;;;;;;3.33;2.17;;;10.30;99.90;;;;;;5027025;28;20441;-87
2022/11/04 05:56:09;;;;;;;5.10;2.50;;;10.40;99.90;;;;;;5027248;28;20919;-86
2022/11/04 05:58:35;;;;;;;5.60;2.57;;;10.40;99.90;;;;;;5031801;28;20454;-86
2022/11/04 06:01:25;;;;;;;2.30;2.10;;;10.40;99.90;;;;;;5030387;28;20449;-85
2022/11/04 06:03:51;;;;;;;3.87;2.00;;;10.30;99.90;;;;;;5023609;28;20442;-85
2022/11/04 06:06:18;;;;;;;4.83;2.10;;;10.20;99.90;;;;;;5031300;28;20441;-86
2022/11/04 06:08:45;;;;;;;2.50;1.37;;;10.20;99.90;;;;;;5031706;28;20453;-87
2022/11/04 06:11:13;;;;;;;5.50;1.40;;;10.20;99.90;;;;;;5045846;28;20553;-86
2022/11/04 06:13:40;;;;;;;2.53;1.17;;;10.10;99.90;;;;;;5050561;28;20445;-86
2022/11/04 06:16:07;;;;;;;3.67;1.93;;;10.10;99.90;;;;;;5031234;28;20425;-85
2022/11/04 06:18:34;;;;;;;6.20;3.43;;;10.20;99.90;;;;;;5029223;28;20437;-86
2022/11/04 06:21:09;;;;;;;6.90;3.07;;;10.20;99.90;;;;;;5033167;28;20444;-84
2022/11/04 06:23:35;;;;;;;5.70;3.80;;;10.20;99.90;;;;;;5034751;28;20452;-85
2022/11/04 06:26:02;;;;;;;6.40;3.70;;;10.20;99.90;;;;;;5033352;28;20431;-85
2022/11/04 06:31:38;;;;;;;9.10;4.50;;;10.20;99.90;;;;;;5031744;28;20482;-84
2022/11/04 06:34:05;;;;;;;7.07;4.23;;;10.20;99.90;;;;;;5032634;28;20437;-85
2022/11/04 06:36:32;;;;;;;8.30;4.23;;;10.30;99.90;;;;;;5043745;28;20434;-84
2022/11/04 06:38:59;;;;;;;7.93;3.27;;;10.20;99.90;;;;;;5042051;28;20550;-84
2022/11/04 06:41:25;;;;;;;5.27;2.47;;;10.30;99.90;;;;;;5041937;28;20485;-85
2022/11/04 06:43:53;;;;;;;4.20;2.50;;;10.20;99.90;;;;;;5050042;28;20440;-86
2022/11/04 06:46:28;;;;;;;4.60;3.07;;;10.30;99.90;;;;;;5051748;28;20433;-85
2022/11/04 06:48:56;;;;;;;4.70;2.83;;;10.30;99.90;;;;;;5053832;28;20501;-85
2022/11/04 06:51:23;;;;;;;7.07;2.87;;;10.30;99.90;;;;;;5053571;28;20466;-84
2022/11/04 06:53:50;;;;;;;4.83;3.30;;;10.30;99.90;;;;;;5074517;22;20505;-86
2022/11/04 06:56:17;;;;;;;11.20;4.50;;;10.30;99.90;;;;;;5033223;28;20438;-86
2022/11/04 06:58:47;;;;;;;5.40;3.70;;;10.40;99.90;;;;;;5047332;28;20473;-85
2022/11/04 07:01:16;;;;;;;7.20;3.50;;;10.40;99.90;;;;;;5058065;28;20438;-84
2022/11/04 07:03:43;;;;;;;10.50;3.97;;;10.40;99.90;;;;;;5058328;28;20461;-86
2022/11/04 07:06:11;;;;;;;5.87;3.37;;;10.40;99.90;;;;;;5053418;28;20501;-85
2022/11/04 07:08:37;;;;;;;5.47;3.10;;;10.40;99.90;;;;;;5039694;28;20435;-85
2022/11/04 07:11:04;;;;;;;5.07;2.50;;;10.40;99.90;;;;;;5037020;28;20486;-86
2022/11/04 07:13:31;;;;;;;9.80;3.80;;;10.40;99.90;;;;;;5034792;28;20532;-86
2022/11/04 07:15:58;;;;;;;9.90;6.00;;;10.40;99.90;;;;;;5031937;28;20441;-88
2022/11/04 07:18:27;;;;;;;10.90;5.83;;;10.50;99.90;;;;;;5053531;28;20434;-85
2022/11/04 07:20:54;;;;;;;12.27;4.47;;;10.50;99.90;;;;;;5042298;28;20509;-86
2022/11/04 07:23:20;;;;;;;12.87;4.60;;;10.50;99.90;;;;;;5046494;28;20442;-85
2022/11/04 07:25:47;;;;;;;7.23;4.60;;;10.50;99.90;;;;;;5038582;28;20910;-85
2022/11/04 07:28:14;;;;;;;7.20;5.20;;;10.50;99.90;;;;;;5034812;28;20520;-85
2022/11/04 07:30:41;;;;;;;11.10;5.93;;;10.50;99.90;;;;;;5032861;28;20843;-85
2022/11/04 07:33:08;;;;;;;7.20;5.53;;;10.40;99.90;;;;;;5031034;28;20451;-86
2022/11/04 07:35:36;;;;;;;8.20;6.10;;;10.40;99.90;;;;;;5031478;28;20450;-86
2022/11/04 07:38:03;;;;;;;9.30;5.60;;;10.40;99.90;;;;;;5033052;28;20446;-86
2022/11/04 07:40:33;;;;;;;7.27;4.90;;;10.50;99.90;;;;;;5036267;28;20462;-84
2022/11/04 07:43:08;;;;;;;7.60;4.60;;;10.60;99.90;;;;;;5028454;28;20438;-85
2022/11/04 07:45:35;;;;;;;7.87;4.00;;;10.60;99.90;;;;;;5040848;28;20533;-85
2022/11/04 07:48:02;;;;;;;4.40;3.30;;;10.60;99.90;;;;;;5032209;28;20492;-86
2022/11/04 07:50:30;;;;;;;9.70;3.80;;;10.70;99.90;;;;;;5032259;28;20465;-86
2022/11/04 07:52:59;;;;;;;5.60;4.40;;;10.70;99.90;;;;;;5045499;28;20488;-86
2022/11/04 07:55:26;;;;;;;9.60;4.87;;;10.80;99.90;;;;;;5057693;28;20485;-84
2022/11/04 07:57:54;;;;;;;8.13;4.90;;;11.00;99.90;;;;;;5051984;28;20419;-86
2022/11/04 08:00:22;;;;;;;7.87;4.50;;;11.00;99.90;;;;;;5037166;28;20477;-85
2022/11/04 08:02:49;;;;;;;7.47;4.40;;;11.10;99.90;;;;;;5029982;28;20849;-86
2022/11/04 08:05:16;;;;;;;13.83;5.60;;;11.30;99.90;;;;;;5031361;28;20454;-85
2022/11/04 08:07:47;;;;;;;7.90;5.20;;;11.40;99.90;;;;;;5041118;28;20437;-87
2022/11/04 08:10:20;;;;;;;6.50;4.60;;;11.50;99.90;;;;;;5035504;28;20482;-87
2022/11/04 08:12:46;;;;;;;13.47;4.20;;;11.70;99.90;;;;;;5034204;28;20478;-85
2022/11/04 08:15:14;;;;;;;9.17;4.47;;;11.80;99.90;;;;;;5040366;28;20452;-85
2022/11/04 08:17:40;;;;;;;9.03;4.47;;;12.00;99.90;;;;;;5034338;28;20442;-85
2022/11/04 08:20:10;;;;;;;8.80;4.47;;;12.00;99.90;;;;;;5033986;28;20462;-85
2022/11/04 08:22:38;;;;;;;7.70;4.50;;;12.00;99.90;;;;;;5035339;28;20497;-85
2022/11/04 08:25:10;;;;;;;6.87;4.10;;;12.00;99.90;;;;;;5037440;28;20450;-85
2022/11/04 08:27:38;;;;;;;5.67;3.80;;;12.00;99.90;;;;;;5032201;28;20450;-86
2022/11/04 08:30:06;;;;;;;6.77;3.20;;;12.10;99.90;;;;;;5033508;28;20460;-86
2022/11/04 08:32:32;;;;;;;4.30;3.90;;;12.10;99.90;;;;;;5049041;28;20486;-85
2022/11/04 08:35:00;;;;;;;8.87;5.20;;;12.20;99.90;;;;;;5046020;28;20442;-85
2022/11/04 08:37:27;;;;;;;5.93;3.60;;;12.20;99.90;;;;;;5046663;28;20566;-86
2022/11/04 08:39:54;;;;;;;3.80;3.27;;;12.30;99.90;;;;;;5055443;28;20434;-84
2022/11/04 08:42:25;;;;;;;5.63;3.70;;;12.40;99.90;;;;;;5056896;28;20450;-85
2022/11/04 08:44:54;;;;;;;10.60;4.77;;;12.40;99.90;;;;;;5050508;28;20438;-85
2022/11/04 08:47:20;;;;;;;6.27;3.60;;;12.40;99.90;;;;;;5048134;28;20448;-86
2022/11/04 08:49:47;;;;;;;6.50;3.90;;;12.40;99.90;;;;;;5050770;28;20485;-86
2022/11/04 08:52:14;;;;;;;8.30;3.27;;;12.50;99.90;;;;;;5032891;28;20500;-86
2022/11/04 08:54:43;;;;;;;7.20;3.47;;;12.60;99.90;;;;;;5044614;28;20449;-85
2022/11/04 08:57:09;;;;;;;5.60;3.60;;;12.50;99.90;;;;;;5032877;28;20600;-85
2022/11/04 08:59:36;;;;;;;6.23;3.30;;;12.50;99.90;;;;;;5034417;28;20458;-85
2022/11/04 09:02:04;;;;;;;5.73;3.43;;;12.60;99.90;;;;;;5031684;28;20434;-86
2022/11/04 09:04:31;;;;;;;6.20;3.33;;;12.70;99.90;;;;;;5028539;28;20453;-85
2022/11/04 09:06:58;;;;;;;5.50;2.13;;;12.70;99.90;;;;;;5034503;28;20427;-84
2022/11/04 09:09:25;;;;;;;6.13;2.57;;;12.60;99.90;;;;;;5053802;28;20465;-84
2022/11/04 09:11:52;;;;;;;3.93;2.30;;;12.60;99.90;;;;;;5041459;28;20478;-85
2022/11/04 09:14:20;;;;;;;5.13;3.33;;;12.60;99.90;;;;;;5047789;28;20453;-86
2022/11/04 09:16:47;;;;;;;3.17;2.77;;;12.70;99.90;;;;;;5026612;28;20790;-86
2022/11/04 09:19:15;;;;;;;2.27;1.87;;;12.60;99.90;;;;;;5032351;28;20466;-86
2022/11/04 09:21:42;;;;;;;9.33;5.47;;;12.70;99.90;;;;;;5031757;28;20442;-86
2022/11/04 09:24:10;;;;;;;8.83;3.80;;;12.70;99.90;;;;;;5031631;28;20794;-86
2022/11/04 09:26:37;;;;;;;7.73;2.90;;;12.90;99.90;;;;;;5036031;28;20437;-86
2022/11/04 09:29:05;;;;;;;8.70;4.17;;;12.90;99.90;;;;;;5033328;28;20541;-86
2022/11/04 09:31:32;;;;;;;5.97;3.73;;;12.80;99.90;;;;;;5038724;28;21081;-87
2022/11/04 09:33:59;;;;;;;6.73;3.40;;;12.90;99.90;;;;;;5058919;28;20436;-85
2022/11/04 09:36:27;;;;;;;5.87;3.90;;;13.00;99.90;;;;;;5057765;28;20448;-85
2022/11/04 09:38:55;;;;;;;4.30;3.30;;;13.00;99.90;;;;;;5041250;28;20479;-87
2022/11/04 09:41:41;;;;;;;5.37;3.20;;;13.10;99.90;;;;;;5034263;28;20514;-87
2022/11/04 09:44:17;;;;;;;8.87;4.20;;;13.10;99.90;;;;;;5032568;28;21001;-86
2022/11/04 09:46:47;;;;;;;8.13;4.17;;;13.20;99.90;;;;;;5036695;28;20946;-85
2022/11/04 09:49:15;;;;;;;7.57;6.07;;;13.30;99.90;;;;;;5053137;28;20478;-85
2022/11/04 09:51:46;;;;;;;10.97;4.97;;;13.40;99.90;;;;;;5056528;28;20508;-84
2022/11/04 09:54:20;;;;;;;4.90;3.40;;;13.60;99.90;;;;;;5034712;28;20445;-86
2022/11/04 09:56:50;;;;;;;5.30;3.30;;;13.60;99.90;;;;;;5037350;28;20514;-87
2022/11/04 09:59:22;;;;;;;5.80;3.10;;;13.70;99.90;;;;;;5043498;28;20530;-85
2022/11/04 10:01:58;;;;;;;8.20;4.10;;;14.00;99.90;;;;;;5051363;28;20413;-85
2022/11/04 10:04:34;;;;;;;7.20;3.60;;;14.30;99.90;;;;;;5053819;28;20468;-84
2022/11/04 10:07:13;;;;;;;5.27;2.67;;;14.30;99.90;;;;;;5056235;28;20436;-84
2022/11/04 10:09:54;;;;;;;8.73;6.17;;;14.70;99.90;;;;;;5032588;28;20456;-85
2022/11/04 10:12:38;;;;;;;3.20;2.43;;;15.20;99.90;;;;;;5031074;28;20855;-85
2022/11/04 10:15:21;;;;;;;6.10;2.63;;;15.60;99.90;;;;;;5040680;28;20434;-86
2022/11/04 10:18:00;;;;;;;6.13;2.30;;;15.60;99.90;;;;;;5051286;28;20441;-84
2022/11/04 10:20:40;;;;;;;6.50;1.80;;;15.70;99.90;;;;;;5032182;28;20471;-85
2022/11/04 10:23:20;;;;;;;7.17;2.90;;;16.40;99.90;;;;;;5032569;28;20939;-84
2022/11/04 10:25:49;;;;;;;9.00;2.47;;;16.90;99.40;;;;;;5034292;28;20945;-85
2022/11/04 10:28:19;;;;;;;6.87;2.73;;;16.70;98.40;;;;;;5027621;28;20453;-85
2022/11/04 10:30:49;;;;;;;4.03;2.30;;;16.80;99.20;;;;;;5034145;28;20489;-85
2022/11/04 10:33:27;;;;;;;3.00;2.33;;;16.90;97.60;;;;;;5047199;28;20541;-85
2022/11/04 10:35:57;;;;;;;6.83;3.37;;;17.70;98.10;;;;;;5047482;28;20938;-85
2022/11/04 10:38:36;;;;;;;7.10;2.70;;;18.00;95.40;;;;;;5031612;28;20530;-86
2022/11/04 10:41:15;;;;;;;5.17;2.47;;;17.80;95.70;;;;;;5037115;28;20465;-85
2022/11/04 10:43:42;;;;;;;2.33;1.80;;;17.60;96.40;;;;;;5027247;28;20433;-85
2022/11/04 10:46:20;;;;;;;5.33;2.10;;;17.40;96.70;;;;;;5031520;28;20438;-84
2022/11/04 10:48:53;;;;;;;5.00;2.70;;;17.30;96.00;;;;;;5028254;28;20457;-85
2022/11/04 10:51:21;;;;;;;4.50;2.23;;;17.60;96.30;;;;;;5027378;28;20454;-85
2022/11/04 10:53:57;;;;;;;3.93;2.83;;;18.30;95.10;;;;;;5029081;28;20971;-86
2022/11/04 10:56:33;;;;;;;4.17;2.07;;;19.20;93.20;;;;;;5037428;28;20458;-85
2022/11/04 10:59:13;;;;;;;4.47;1.93;;;19.90;91.80;;;;;;5042955;28;20477;-84
2022/11/04 11:01:49;;;;;;;3.30;1.93;;;19.30;90.70;;;;;;5038067;28;20532;-85
2022/11/04 11:04:25;;;;;;;3.40;1.60;;;18.80;91.70;;;;;;5060258;28;20443;-85
2022/11/04 11:06:54;;;;;;;3.93;1.50;;;18.40;91.80;;;;;;5054789;28;20437;-85
2022/11/04 11:09:27;;;;;;;2.33;1.73;;;17.70;92.40;;;;;;5064264;28;20531;-85
2022/11/04 11:11:58;;;;;;;3.30;1.90;;;17.50;93.30;;;;;;5058165;28;20529;-84
2022/11/04 11:14:36;;;;;;;7.43;1.80;;;17.10;93.30;;;;;;5061164;28;20479;-86
2022/11/04 11:17:37;;;;;;;2.77;1.27;;;16.40;93.20;;;;;;5052312;28;20440;-85
2022/11/04 11:20:20;;;;;;;3.10;1.50;;;15.80;93.60;;;;;;5005182;28;20458;-83
2022/11/04 11:22:50;;;;;;;7.43;3.03;;;15.50;94.40;;;;;;5035521;28;20434;-84
2022/11/04 11:25:29;;;;;;;7.60;2.37;;;15.10;95.10;;;;;;5039020;28;20449;-83
2022/11/04 11:27:58;;;;;;;2.90;1.33;;;14.80;95.60;;;;;;5032356;28;20445;-83
2022/11/04 11:30:28;;;;;;;4.90;1.77;;;14.70;96.10;;;;;;5033770;28;20478;-82
2022/11/04 11:33:00;;;;;;;8.47;1.87;;;14.60;96.20;;;;;;5034416;28;20474;-83
2022/11/04 11:35:32;;;;;;;2.90;1.00;;;14.50;96.10;;;;;;5040063;28;20496;-82
2022/11/04 11:38:02;;;;;;;4.37;1.90;;;14.50;96.10;;;;;;5052608;28;20504;-83
2022/11/04 11:40:34;;;;;;;8.07;1.77;;;14.40;97.20;;;;;;5051201;28;20521;-83
2022/11/04 11:43:02;;;;;;;4.63;1.63;;;14.50;97.10;;;;;;5044555;28;20456;-83
2022/11/04 11:45:30;;;;;;;3.63;1.83;;;14.60;97.00;;;;;;5039496;28;20447;-83
2022/11/04 11:47:57;;;;;;;4.60;1.50;;;14.60;96.70;;;;;;5038704;28;20441;-83
2022/11/04 11:50:30;;;;;;;2.57;1.43;;;14.70;96.80;;;;;;5042950;28;20488;-83
2022/11/04 11:53:18;;;;;;;4.73;1.60;;;14.80;96.60;;;;;;5035335;28;20872;-87
2022/11/04 11:55:53;;;;;;;3.50;0.97;;;14.80;96.70;;;;;;5042294;28;20441;-83
2022/11/04 11:58:28;;;;;;;5.20;1.47;;;14.90;97.60;;;;;;5027444;28;20446;-82
2022/11/04 12:01:01;;;;;;;5.23;1.50;;;14.60;96.00;;;;;;5027266;28;20447;-83
2022/11/04 12:03:34;;;;;;;6.87;1.50;;;14.60;97.50;;;;;;5032005;28;20494;-83
2022/11/04 12:06:14;;;;;;;4.43;1.53;;;15.00;98.40;;;;;;5028337;28;20525;-84
2022/11/04 12:08:52;;;;;;;3.90;1.30;;;15.40;97.30;;;;;;5030319;28;20887;-84
2022/11/04 12:11:28;;;;;;;2.80;1.30;;;15.70;95.50;;;;;;5023889;28;20453;-83
2022/11/04 12:13:59;;;;;;;7.20;1.67;;;15.70;94.90;;;;;;5029518;28;20481;-84
2022/11/04 12:16:36;;;;;;;10.00;2.83;;;15.50;95.70;;;;;;5037664;28;20445;-84
2022/11/04 12:19:30;;;;;;;4.70;1.00;;;15.30;96.60;;;;;;5037275;28;20452;-84
2022/11/04 12:22:04;;;;;;;6.23;1.90;;;15.10;96.00;;;;;;5054235;28;20430;-83
2022/11/04 12:24:40;;;;;;;3.90;1.30;;;15.20;95.70;;;;;;5052448;28;20433;-83
2022/11/04 12:27:19;;;;;;;4.40;1.90;;;15.40;96.80;;;;;;5033896;28;20507;-82
2022/11/04 12:30:02;;;;;;;2.87;1.47;;;15.50;95.70;;;;;;5038103;28;20843;-85
2022/11/04 12:32:37;;;;;;;3.17;1.57;;;15.60;95.10;;;;;;5030453;28;20471;-84
2022/11/04 12:35:17;;;;;;;3.80;1.10;;;15.50;95.30;;;;;;5029473;28;20441;-84
2022/11/04 12:37:54;;;;;;;4.40;1.63;;;15.40;95.60;;;;;;5030806;28;20449;-84
2022/11/04 12:40:27;;;;;;;3.10;1.30;;;15.40;95.50;;;;;;5027632;28;20487;-84
2022/11/04 12:43:12;;;;;;;3.10;1.30;;;15.40;95.30;;;;;;5029027;28;20457;-85
2022/11/04 12:45:52;;;;;;;3.93;1.30;;;15.40;95.70;;;;;;5031475;28;20787;-84
2022/11/04 12:48:46;;;;;;;2.60;1.17;;;15.40;95.60;;;;;;5034008;28;20457;-87
2022/11/04 12:51:22;;;;;;;2.93;1.20;;;15.40;95.60;;;;;;5027439;28;20461;-85
2022/11/04 12:54:08;;;;;;;2.87;1.27;;;15.40;95.60;;;;;;5044158;28;20508;-86
2022/11/04 12:56:37;;;;;;;4.07;1.50;;;15.40;95.60;;;;;;5045534;28;20429;-84
2022/11/04 12:59:25;;;;;;;4.20;1.13;;;15.40;95.10;;;;;;5047589;28;20472;-83
2022/11/04 13:01:56;;;;;;;4.33;2.10;;;15.30;95.30;;;;;;5036875;28;20942;-83
2022/11/04 13:04:26;;;;;;;4.23;1.50;;;15.40;95.30;;;;;;5037538;28;20438;-83
2022/11/04 13:06:57;;;;;;;6.23;1.50;;;15.50;95.20;;;;;;5036405;28;20560;-83
2022/11/04 13:09:34;;;;;;;3.70;1.40;;;15.60;95.30;;;;;;5038670;28;20457;-82
2022/11/04 13:12:05;;;;;;;3.77;1.57;;;15.60;95.00;;;;;;5038659;28;20438;-83
2022/11/04 13:14:45;;;;;;;5.93;1.67;;;15.60;94.90;;;;;;5039679;28;20445;-83
2022/11/04 13:17:17;;;;;;;6.23;1.47;;;15.80;95.10;;;;;;5030425;28;20502;-83
2022/11/04 13:19:47;;;;;;;5.03;1.67;;;15.80;95.00;;;;;;5020540;28;20471;-83
2022/11/04 13:22:24;;;;;;;2.10;1.30;;;15.80;95.10;;;;;;5039781;28;20460;-83
2022/11/04 13:25:02;;;;;;;4.93;2.53;;;15.70;95.40;;;;;;5039617;28;20449;-82
2022/11/04 13:30:32;;;;;;;7.07;1.97;;;15.70;95.30;;;;;;5037726;28;20462;-81
2022/11/04 13:33:08;;;;;;;5.60;1.80;;;15.60;95.50;;;;;;5039914;28;20997;-82
2022/11/04 13:35:45;;;;;;;5.20;1.57;;;15.60;95.70;;;;;;5042111;28;20452;-83
2022/11/04 13:38:15;;;;;;;4.73;1.90;;;15.60;95.30;;;;;;5039539;28;20453;-85
2022/11/04 13:40:50;;;;;;;6.17;1.73;;;15.80;95.30;;;;;;5040668;28;20844;-83
2022/11/04 13:43:39;;;;;;;7.97;3.67;;;15.90;95.20;;;;;;5041916;28;20832;-84
2022/11/04 13:46:22;;;;;;;4.23;1.77;;;15.90;94.90;;;;;;5045573;28;20442;-83
2022/11/04 13:49:01;;;;;;;3.83;1.97;;;15.80;94.70;;;;;;5048741;28;20459;-84
2022/11/04 13:51:37;;;;;;;4.33;2.23;;;15.80;94.70;;;;;;5031476;28;20965;-84